sensor_id;sensor_type;location;lat;lon;timestamp;pressure;altitude;pressure_sealevel;temperature
25514;BMP180;48128;54.242;10.280;2023-01-01T00:02:23;99800.00;;;12.90
25514;BMP180;48128;54.242;10.280;2023-01-01T00:04:49;99803.00;;;12.90
25514;BMP180;48128;54.242;10.280;2023-01-01T00:07:16;99793.00;;;12.90
25514;BMP180;48128;54.242;10.280;2023-01-01T00:09:43;99804.00;;;12.90
25514;BMP180;48128;54.242;10.280;2023-01-01T00:12:48;99796.00;;;12.90
25514;BMP180;48128;54.242;10.280;2023-01-01T00:15:15;99803.00;;;12.90
25514;BMP180;48128;54.242;10.280;2023-01-01T00:17:42;99805.00;;;12.90
25514;BMP180;48128;54.242;10.280;2023-01-01T00:20:09;99808.00;;;13.00
25514;BMP180;48128;54.242;10.280;2023-01-01T00:22:36;99811.00;;;13.00
25514;BMP180;48128;54.242;10.280;2023-01-01T00:25:21;99829.00;;;13.00
25514;BMP180;48128;54.242;10.280;2023-01-01T00:27:47;99825.00;;;13.00
25514;BMP180;48128;54.242;10.280;2023-01-01T00:30:14;99826.00;;;13.00
25514;BMP180;48128;54.242;10.280;2023-01-01T00:32:41;99809.00;;;13.00
25514;BMP180;48128;54.242;10.280;2023-01-01T00:35:20;99817.00;;;13.00
25514;BMP180;48128;54.242;10.280;2023-01-01T00:37:47;99832.00;;;13.00
25514;BMP180;48128;54.242;10.280;2023-01-01T00:40:14;99823.00;;;13.00
25514;BMP180;48128;54.242;10.280;2023-01-01T00:42:40;99840.00;;;13.00
25514;BMP180;48128;54.242;10.280;2023-01-01T00:45:08;99843.00;;;13.00
25514;BMP180;48128;54.242;10.280;2023-01-01T00:47:34;99845.00;;;13.10
25514;BMP180;48128;54.242;10.280;2023-01-01T00:50:02;99862.00;;;13.10
25514;BMP180;48128;54.242;10.280;2023-01-01T00:52:28;99858.00;;;13.10
25514;BMP180;48128;54.242;10.280;2023-01-01T00:54:55;99866.00;;;13.10
25514;BMP180;48128;54.242;10.280;2023-01-01T00:57:22;99864.00;;;13.20
25514;BMP180;48128;54.242;10.280;2023-01-01T00:59:49;99868.00;;;13.20
25514;BMP180;48128;54.242;10.280;2023-01-01T01:02:15;99865.00;;;13.20
25514;BMP180;48128;54.242;10.280;2023-01-01T01:04:42;99876.00;;;13.20
25514;BMP180;48128;54.242;10.280;2023-01-01T01:07:09;99871.00;;;13.20
25514;BMP180;48128;54.242;10.280;2023-01-01T01:09:36;99877.00;;;13.20
25514;BMP180;48128;54.242;10.280;2023-01-01T01:12:02;99885.00;;;13.20
25514;BMP180;48128;54.242;10.280;2023-01-01T01:14:45;99886.00;;;13.20
25514;BMP180;48128;54.242;10.280;2023-01-01T01:17:12;99891.00;;;13.20
25514;BMP180;48128;54.242;10.280;2023-01-01T01:19:39;99888.00;;;13.20
25514;BMP180;48128;54.242;10.280;2023-01-01T01:22:05;99885.00;;;13.20
25514;BMP180;48128;54.242;10.280;2023-01-01T01:24:32;99877.00;;;13.20
25514;BMP180;48128;54.242;10.280;2023-01-01T01:26:59;99901.00;;;13.30
25514;BMP180;48128;54.242;10.280;2023-01-01T01:29:25;99900.00;;;13.30
25514;BMP180;48128;54.242;10.280;2023-01-01T01:31:52;99895.00;;;13.30
25514;BMP180;48128;54.242;10.280;2023-01-01T01:34:19;99911.00;;;13.30
25514;BMP180;48128;54.242;10.280;2023-01-01T01:36:53;99922.00;;;13.30
25514;BMP180;48128;54.242;10.280;2023-01-01T01:39:20;99910.00;;;13.40
25514;BMP180;48128;54.242;10.280;2023-01-01T01:41:47;99917.00;;;13.40
25514;BMP180;48128;54.242;10.280;2023-01-01T01:49:41;99930.00;;;13.30
25514;BMP180;48128;54.242;10.280;2023-01-01T01:52:09;99939.00;;;13.30
25514;BMP180;48128;54.242;10.280;2023-01-01T01:54:36;99943.00;;;13.30
25514;BMP180;48128;54.242;10.280;2023-01-01T01:57:05;99955.00;;;13.40
25514;BMP180;48128;54.242;10.280;2023-01-01T01:59:35;99948.00;;;13.40
25514;BMP180;48128;54.242;10.280;2023-01-01T02:02:07;99941.00;;;13.50
25514;BMP180;48128;54.242;10.280;2023-01-01T02:04:35;99949.00;;;13.40
25514;BMP180;48128;54.242;10.280;2023-01-01T02:07:02;99952.00;;;13.50
25514;BMP180;48128;54.242;10.280;2023-01-01T02:09:29;99934.00;;;13.50
25514;BMP180;48128;54.242;10.280;2023-01-01T02:11:56;99927.00;;;13.50
25514;BMP180;48128;54.242;10.280;2023-01-01T02:14:24;99938.00;;;13.40
25514;BMP180;48128;54.242;10.280;2023-01-01T02:17:02;99944.00;;;13.40
25514;BMP180;48128;54.242;10.280;2023-01-01T02:19:54;99940.00;;;13.50
25514;BMP180;48128;54.242;10.280;2023-01-01T02:28:14;99966.00;;;13.50
25514;BMP180;48128;54.242;10.280;2023-01-01T02:30:45;99957.00;;;13.50
25514;BMP180;48128;54.242;10.280;2023-01-01T02:33:21;99987.00;;;13.60
25514;BMP180;48128;54.242;10.280;2023-01-01T02:35:53;99958.00;;;13.50
25514;BMP180;48128;54.242;10.280;2023-01-01T02:38:33;99972.00;;;13.50
25514;BMP180;48128;54.242;10.280;2023-01-01T02:43:50;99961.00;;;13.50
25514;BMP180;48128;54.242;10.280;2023-01-01T02:46:17;99968.00;;;13.50
25514;BMP180;48128;54.242;10.280;2023-01-01T02:48:48;99984.00;;;13.40
25514;BMP180;48128;54.242;10.280;2023-01-01T03:00:23;99955.00;;;13.40
25514;BMP180;48128;54.242;10.280;2023-01-01T03:03:20;99987.00;;;13.40
25514;BMP180;48128;54.242;10.280;2023-01-01T03:06:10;99984.00;;;13.40
25514;BMP180;48128;54.242;10.280;2023-01-01T03:14:53;99997.00;;;13.50
25514;BMP180;48128;54.242;10.280;2023-01-01T03:17:27;100006.00;;;13.50
25514;BMP180;48128;54.242;10.280;2023-01-01T03:19:55;99972.00;;;13.40
25514;BMP180;48128;54.242;10.280;2023-01-01T03:22:28;99983.00;;;13.40
25514;BMP180;48128;54.242;10.280;2023-01-01T03:27:33;99987.00;;;13.40
25514;BMP180;48128;54.242;10.280;2023-01-01T03:30:05;99988.00;;;13.40
25514;BMP180;48128;54.242;10.280;2023-01-01T03:33:22;100014.00;;;13.40
25514;BMP180;48128;54.242;10.280;2023-01-01T03:35:39;100000.00;;;13.40
25514;BMP180;48128;54.242;10.280;2023-01-01T03:38:25;100024.00;;;13.40
25514;BMP180;48128;54.242;10.280;2023-01-01T03:40:58;99995.00;;;13.30
25514;BMP180;48128;54.242;10.280;2023-01-01T03:46:12;99995.00;;;13.10
25514;BMP180;48128;54.242;10.280;2023-01-01T03:48:39;99972.00;;;13.00
25514;BMP180;48128;54.242;10.280;2023-01-01T03:54:27;99962.00;;;12.60
25514;BMP180;48128;54.242;10.280;2023-01-01T03:57:10;99965.00;;;12.50
25514;BMP180;48128;54.242;10.280;2023-01-01T03:59:48;99955.00;;;12.30
25514;BMP180;48128;54.242;10.280;2023-01-01T04:02:18;99961.00;;;12.30
25514;BMP180;48128;54.242;10.280;2023-01-01T04:04:47;99961.00;;;12.20
25514;BMP180;48128;54.242;10.280;2023-01-01T04:07:14;99959.00;;;12.10
25514;BMP180;48128;54.242;10.280;2023-01-01T04:09:43;99966.00;;;12.10
25514;BMP180;48128;54.242;10.280;2023-01-01T04:12:13;99979.00;;;12.10
25514;BMP180;48128;54.242;10.280;2023-01-01T04:14:41;99978.00;;;12.10
25514;BMP180;48128;54.242;10.280;2023-01-01T04:17:09;99986.00;;;12.10
25514;BMP180;48128;54.242;10.280;2023-01-01T04:19:37;100015.00;;;12.20
25514;BMP180;48128;54.242;10.280;2023-01-01T04:22:04;100016.00;;;12.20
25514;BMP180;48128;54.242;10.280;2023-01-01T04:24:31;100017.00;;;12.30
25514;BMP180;48128;54.242;10.280;2023-01-01T04:26:57;100007.00;;;12.30
25514;BMP180;48128;54.242;10.280;2023-01-01T04:29:24;100016.00;;;12.30
25514;BMP180;48128;54.242;10.280;2023-01-01T04:31:51;100022.00;;;12.20
25514;BMP180;48128;54.242;10.280;2023-01-01T04:34:18;100028.00;;;12.20
25514;BMP180;48128;54.242;10.280;2023-01-01T04:36:44;100023.00;;;12.20
25514;BMP180;48128;54.242;10.280;2023-01-01T04:39:12;100003.00;;;12.20
25514;BMP180;48128;54.242;10.280;2023-01-01T04:41:39;100025.00;;;12.10
25514;BMP180;48128;54.242;10.280;2023-01-01T04:44:06;100013.00;;;12.10
25514;BMP180;48128;54.242;10.280;2023-01-01T04:46:32;100007.00;;;12.10
25514;BMP180;48128;54.242;10.280;2023-01-01T04:48:59;100030.00;;;12.10
25514;BMP180;48128;54.242;10.280;2023-01-01T04:51:26;100028.00;;;12.10
25514;BMP180;48128;54.242;10.280;2023-01-01T04:53:53;100026.00;;;12.10
25514;BMP180;48128;54.242;10.280;2023-01-01T04:56:20;100037.00;;;12.10
25514;BMP180;48128;54.242;10.280;2023-01-01T04:58:47;100031.00;;;12.20
25514;BMP180;48128;54.242;10.280;2023-01-01T05:01:25;100039.00;;;12.20
25514;BMP180;48128;54.242;10.280;2023-01-01T05:03:53;100041.00;;;12.20
25514;BMP180;48128;54.242;10.280;2023-01-01T05:06:20;100060.00;;;12.20
25514;BMP180;48128;54.242;10.280;2023-01-01T05:08:49;100054.00;;;12.20
25514;BMP180;48128;54.242;10.280;2023-01-01T05:11:36;100056.00;;;12.20
25514;BMP180;48128;54.242;10.280;2023-01-01T05:14:03;100054.00;;;12.20
25514;BMP180;48128;54.242;10.280;2023-01-01T05:16:32;100039.00;;;12.10
25514;BMP180;48128;54.242;10.280;2023-01-01T05:19:00;100040.00;;;12.10
25514;BMP180;48128;54.242;10.280;2023-01-01T05:21:31;100047.00;;;12.00
25514;BMP180;48128;54.242;10.280;2023-01-01T05:24:00;100044.00;;;12.00
25514;BMP180;48128;54.242;10.280;2023-01-01T05:26:30;100052.00;;;11.90
25514;BMP180;48128;54.242;10.280;2023-01-01T05:28:58;100053.00;;;11.80
25514;BMP180;48128;54.242;10.280;2023-01-01T05:31:29;100057.00;;;11.80
25514;BMP180;48128;54.242;10.280;2023-01-01T05:33:56;100064.00;;;11.80
25514;BMP180;48128;54.242;10.280;2023-01-01T05:36:25;100066.00;;;11.80
25514;BMP180;48128;54.242;10.280;2023-01-01T05:38:53;100064.00;;;11.80
25514;BMP180;48128;54.242;10.280;2023-01-01T05:41:20;100088.00;;;11.80
25514;BMP180;48128;54.242;10.280;2023-01-01T05:43:48;100090.00;;;11.80
25514;BMP180;48128;54.242;10.280;2023-01-01T05:46:22;100087.00;;;11.80
25514;BMP180;48128;54.242;10.280;2023-01-01T05:48:51;100108.00;;;11.80
25514;BMP180;48128;54.242;10.280;2023-01-01T05:51:20;100112.00;;;11.90
25514;BMP180;48128;54.242;10.280;2023-01-01T05:53:47;100116.00;;;11.90
25514;BMP180;48128;54.242;10.280;2023-01-01T05:56:15;100128.00;;;11.90
25514;BMP180;48128;54.242;10.280;2023-01-01T05:58:42;100113.00;;;12.00
25514;BMP180;48128;54.242;10.280;2023-01-01T06:04:09;100123.00;;;12.00
25514;BMP180;48128;54.242;10.280;2023-01-01T06:06:37;100126.00;;;12.00
25514;BMP180;48128;54.242;10.280;2023-01-01T06:09:04;100130.00;;;12.00
25514;BMP180;48128;54.242;10.280;2023-01-01T06:11:31;100120.00;;;12.00
25514;BMP180;48128;54.242;10.280;2023-01-01T06:13:59;100126.00;;;12.00
25514;BMP180;48128;54.242;10.280;2023-01-01T06:16:27;100141.00;;;12.00
25514;BMP180;48128;54.242;10.280;2023-01-01T06:18:54;100142.00;;;12.00
25514;BMP180;48128;54.242;10.280;2023-01-01T06:21:23;100143.00;;;12.00
25514;BMP180;48128;54.242;10.280;2023-01-01T06:23:50;100143.00;;;12.00
25514;BMP180;48128;54.242;10.280;2023-01-01T06:26:22;100152.00;;;12.10
25514;BMP180;48128;54.242;10.280;2023-01-01T06:28:50;100152.00;;;12.10
25514;BMP180;48128;54.242;10.280;2023-01-01T06:31:19;100165.00;;;12.10
25514;BMP180;48128;54.242;10.280;2023-01-01T06:33:47;100164.00;;;12.10
25514;BMP180;48128;54.242;10.280;2023-01-01T06:36:16;100171.00;;;12.10
25514;BMP180;48128;54.242;10.280;2023-01-01T06:38:45;100160.00;;;12.10
25514;BMP180;48128;54.242;10.280;2023-01-01T06:41:14;100165.00;;;12.10
25514;BMP180;48128;54.242;10.280;2023-01-01T06:43:41;100185.00;;;12.20
25514;BMP180;48128;54.242;10.280;2023-01-01T06:48:53;100173.00;;;12.10
25514;BMP180;48128;54.242;10.280;2023-01-01T06:51:24;100182.00;;;12.10
25514;BMP180;48128;54.242;10.280;2023-01-01T06:53:51;100189.00;;;12.10
25514;BMP180;48128;54.242;10.280;2023-01-01T06:56:19;100183.00;;;12.10
25514;BMP180;48128;54.242;10.280;2023-01-01T06:58:46;100186.00;;;12.10
25514;BMP180;48128;54.242;10.280;2023-01-01T07:01:17;100186.00;;;12.00
25514;BMP180;48128;54.242;10.280;2023-01-01T07:03:59;100170.00;;;12.00
25514;BMP180;48128;54.242;10.280;2023-01-01T07:06:28;100190.00;;;12.00
25514;BMP180;48128;54.242;10.280;2023-01-01T07:08:55;100176.00;;;11.90
25514;BMP180;48128;54.242;10.280;2023-01-01T07:11:22;100182.00;;;11.90
25514;BMP180;48128;54.242;10.280;2023-01-01T07:13:49;100193.00;;;11.90
25514;BMP180;48128;54.242;10.280;2023-01-01T07:16:16;100186.00;;;11.90
25514;BMP180;48128;54.242;10.280;2023-01-01T07:18:43;100194.00;;;11.80
25514;BMP180;48128;54.242;10.280;2023-01-01T07:21:30;100201.00;;;11.80
25514;BMP180;48128;54.242;10.280;2023-01-01T07:24:03;100184.00;;;11.80
25514;BMP180;48128;54.242;10.280;2023-01-01T07:26:31;100199.00;;;11.80
25514;BMP180;48128;54.242;10.280;2023-01-01T07:28:58;100206.00;;;11.80
25514;BMP180;48128;54.242;10.280;2023-01-01T07:31:38;100204.00;;;11.70
25514;BMP180;48128;54.242;10.280;2023-01-01T07:34:06;100199.00;;;11.70
25514;BMP180;48128;54.242;10.280;2023-01-01T07:36:33;100192.00;;;11.70
25514;BMP180;48128;54.242;10.280;2023-01-01T07:39:00;100214.00;;;11.70
25514;BMP180;48128;54.242;10.280;2023-01-01T07:41:26;100227.00;;;11.70
25514;BMP180;48128;54.242;10.280;2023-01-01T07:43:53;100220.00;;;11.70
25514;BMP180;48128;54.242;10.280;2023-01-01T07:46:20;100247.00;;;11.70
25514;BMP180;48128;54.242;10.280;2023-01-01T07:48:47;100243.00;;;11.70
25514;BMP180;48128;54.242;10.280;2023-01-01T07:51:14;100255.00;;;11.80
25514;BMP180;48128;54.242;10.280;2023-01-01T07:53:41;100278.00;;;11.80
25514;BMP180;48128;54.242;10.280;2023-01-01T07:56:08;100277.00;;;11.90
25514;BMP180;48128;54.242;10.280;2023-01-01T07:58:38;100279.00;;;11.90
25514;BMP180;48128;54.242;10.280;2023-01-01T08:01:05;100287.00;;;12.00
25514;BMP180;48128;54.242;10.280;2023-01-01T08:03:32;100269.00;;;12.00
25514;BMP180;48128;54.242;10.280;2023-01-01T08:05:59;100291.00;;;12.00
25514;BMP180;48128;54.242;10.280;2023-01-01T08:08:25;100285.00;;;12.00
25514;BMP180;48128;54.242;10.280;2023-01-01T08:10:52;100289.00;;;12.00
25514;BMP180;48128;54.242;10.280;2023-01-01T08:13:23;100288.00;;;12.00
25514;BMP180;48128;54.242;10.280;2023-01-01T08:15:49;100299.00;;;12.00
25514;BMP180;48128;54.242;10.280;2023-01-01T08:18:17;100290.00;;;12.00
25514;BMP180;48128;54.242;10.280;2023-01-01T08:20:44;100313.00;;;12.00
25514;BMP180;48128;54.242;10.280;2023-01-01T08:23:11;100315.00;;;12.00
25514;BMP180;48128;54.242;10.280;2023-01-01T08:25:37;100315.00;;;12.00
25514;BMP180;48128;54.242;10.280;2023-01-01T08:28:04;100330.00;;;12.00
25514;BMP180;48128;54.242;10.280;2023-01-01T08:30:31;100342.00;;;12.00
25514;BMP180;48128;54.242;10.280;2023-01-01T08:32:58;100339.00;;;12.00
25514;BMP180;48128;54.242;10.280;2023-01-01T08:35:25;100353.00;;;12.00
25514;BMP180;48128;54.242;10.280;2023-01-01T08:37:51;100347.00;;;12.00
25514;BMP180;48128;54.242;10.280;2023-01-01T08:40:19;100361.00;;;12.00
25514;BMP180;48128;54.242;10.280;2023-01-01T08:42:46;100372.00;;;12.10
25514;BMP180;48128;54.242;10.280;2023-01-01T08:45:12;100369.00;;;12.10
25514;BMP180;48128;54.242;10.280;2023-01-01T08:47:39;100386.00;;;12.10
25514;BMP180;48128;54.242;10.280;2023-01-01T08:50:06;100401.00;;;12.10
25514;BMP180;48128;54.242;10.280;2023-01-01T08:52:33;100418.00;;;12.10
25514;BMP180;48128;54.242;10.280;2023-01-01T08:55:00;100420.00;;;12.10
25514;BMP180;48128;54.242;10.280;2023-01-01T08:57:30;100441.00;;;12.10
25514;BMP180;48128;54.242;10.280;2023-01-01T08:59:57;100449.00;;;12.20
25514;BMP180;48128;54.242;10.280;2023-01-01T09:02:24;100449.00;;;12.20
25514;BMP180;48128;54.242;10.280;2023-01-01T09:04:51;100469.00;;;12.10
25514;BMP180;48128;54.242;10.280;2023-01-01T09:07:18;100471.00;;;12.20
25514;BMP180;48128;54.242;10.280;2023-01-01T09:09:44;100470.00;;;12.10
25514;BMP180;48128;54.242;10.280;2023-01-01T09:12:14;100475.00;;;12.10
25514;BMP180;48128;54.242;10.280;2023-01-01T09:14:42;100477.00;;;12.00
25514;BMP180;48128;54.242;10.280;2023-01-01T09:17:12;100480.00;;;12.10
25514;BMP180;48128;54.242;10.280;2023-01-01T09:19:38;100485.00;;;12.00
25514;BMP180;48128;54.242;10.280;2023-01-01T09:22:12;100491.00;;;12.10
25514;BMP180;48128;54.242;10.280;2023-01-01T09:24:38;100510.00;;;12.10
25514;BMP180;48128;54.242;10.280;2023-01-01T09:27:05;100524.00;;;12.10
25514;BMP180;48128;54.242;10.280;2023-01-01T09:29:32;100515.00;;;12.10
25514;BMP180;48128;54.242;10.280;2023-01-01T09:31:59;100528.00;;;12.20
25514;BMP180;48128;54.242;10.280;2023-01-01T09:34:26;100529.00;;;12.20
25514;BMP180;48128;54.242;10.280;2023-01-01T09:36:52;100533.00;;;12.10
25514;BMP180;48128;54.242;10.280;2023-01-01T09:39:19;100565.00;;;12.20
25514;BMP180;48128;54.242;10.280;2023-01-01T09:44:41;100605.00;;;12.20
25514;BMP180;48128;54.242;10.280;2023-01-01T09:47:36;100608.00;;;12.10
25514;BMP180;48128;54.242;10.280;2023-01-01T09:50:12;100617.00;;;12.10
25514;BMP180;48128;54.242;10.280;2023-01-01T09:55:17;100629.00;;;12.20
25514;BMP180;48128;54.242;10.280;2023-01-01T09:57:46;100637.00;;;12.20
25514;BMP180;48128;54.242;10.280;2023-01-01T10:00:15;100616.00;;;12.20
25514;BMP180;48128;54.242;10.280;2023-01-01T10:11:08;100655.00;;;12.40
25514;BMP180;48128;54.242;10.280;2023-01-01T10:13:43;100659.00;;;12.40
25514;BMP180;48128;54.242;10.280;2023-01-01T10:18:56;100674.00;;;12.40
25514;BMP180;48128;54.242;10.280;2023-01-01T10:21:36;100692.00;;;12.40
25514;BMP180;48128;54.242;10.280;2023-01-01T10:24:40;100694.00;;;12.40
25514;BMP180;48128;54.242;10.280;2023-01-01T10:27:21;100697.00;;;12.40
25514;BMP180;48128;54.242;10.280;2023-01-01T10:29:50;100693.00;;;12.30
25514;BMP180;48128;54.242;10.280;2023-01-01T10:32:20;100694.00;;;12.30
25514;BMP180;48128;54.242;10.280;2023-01-01T10:34:48;100669.00;;;12.30
25514;BMP180;48128;54.242;10.280;2023-01-01T10:37:16;100675.00;;;12.20
25514;BMP180;48128;54.242;10.280;2023-01-01T10:39:43;100693.00;;;12.20
25514;BMP180;48128;54.242;10.280;2023-01-01T10:42:12;100699.00;;;12.20
25514;BMP180;48128;54.242;10.280;2023-01-01T10:44:39;100696.00;;;12.20
25514;BMP180;48128;54.242;10.280;2023-01-01T10:47:25;100701.00;;;12.20
25514;BMP180;48128;54.242;10.280;2023-01-01T10:49:57;100702.00;;;12.20
25514;BMP180;48128;54.242;10.280;2023-01-01T10:52:36;100727.00;;;12.20
25514;BMP180;48128;54.242;10.280;2023-01-01T10:55:03;100719.00;;;12.20
25514;BMP180;48128;54.242;10.280;2023-01-01T10:57:36;100703.00;;;12.20
25514;BMP180;48128;54.242;10.280;2023-01-01T11:00:18;100722.00;;;12.20
25514;BMP180;48128;54.242;10.280;2023-01-01T11:02:48;100722.00;;;12.20
25514;BMP180;48128;54.242;10.280;2023-01-01T11:05:30;100716.00;;;12.20
25514;BMP180;48128;54.242;10.280;2023-01-01T11:07:57;100725.00;;;12.20
25514;BMP180;48128;54.242;10.280;2023-01-01T11:10:24;100704.00;;;12.20
25514;BMP180;48128;54.242;10.280;2023-01-01T11:12:51;100719.00;;;12.30
25514;BMP180;48128;54.242;10.280;2023-01-01T11:15:37;100730.00;;;12.30
25514;BMP180;48128;54.242;10.280;2023-01-01T11:18:12;100762.00;;;12.30
25514;BMP180;48128;54.242;10.280;2023-01-01T11:20:40;100749.00;;;12.40
25514;BMP180;48128;54.242;10.280;2023-01-01T11:23:19;100730.00;;;12.40
25514;BMP180;48128;54.242;10.280;2023-01-01T11:25:57;100731.00;;;12.40
25514;BMP180;48128;54.242;10.280;2023-01-01T11:28:24;100750.00;;;12.40
25514;BMP180;48128;54.242;10.280;2023-01-01T11:30:59;100760.00;;;12.40
25514;BMP180;48128;54.242;10.280;2023-01-01T11:33:27;100752.00;;;12.40
25514;BMP180;48128;54.242;10.280;2023-01-01T11:35:55;100753.00;;;12.30
25514;BMP180;48128;54.242;10.280;2023-01-01T11:38:23;100751.00;;;12.30
25514;BMP180;48128;54.242;10.280;2023-01-01T11:41:05;100751.00;;;12.20
25514;BMP180;48128;54.242;10.280;2023-01-01T11:43:37;100761.00;;;12.10
25514;BMP180;48128;54.242;10.280;2023-01-01T11:46:07;100759.00;;;12.10
25514;BMP180;48128;54.242;10.280;2023-01-01T11:48:41;100750.00;;;12.10
25514;BMP180;48128;54.242;10.280;2023-01-01T11:51:27;100760.00;;;12.10
25514;BMP180;48128;54.242;10.280;2023-01-01T11:54:23;100774.00;;;12.00
25514;BMP180;48128;54.242;10.280;2023-01-01T11:56:53;100778.00;;;12.10
25514;BMP180;48128;54.242;10.280;2023-01-01T11:59:26;100758.00;;;12.10
25514;BMP180;48128;54.242;10.280;2023-01-01T12:01:58;100765.00;;;12.10
25514;BMP180;48128;54.242;10.280;2023-01-01T12:04:34;100776.00;;;12.10
25514;BMP180;48128;54.242;10.280;2023-01-01T12:09:42;100766.00;;;12.20
25514;BMP180;48128;54.242;10.280;2023-01-01T12:15:13;100772.00;;;12.10
25514;BMP180;48128;54.242;10.280;2023-01-01T12:20:56;100779.00;;;12.10
25514;BMP180;48128;54.242;10.280;2023-01-01T12:23:27;100791.00;;;12.00
25514;BMP180;48128;54.242;10.280;2023-01-01T12:26:52;100791.00;;;12.00
25514;BMP180;48128;54.242;10.280;2023-01-01T12:35:32;100804.00;;;11.90
25514;BMP180;48128;54.242;10.280;2023-01-01T12:58:32;100834.00;;;11.70
25514;BMP180;48128;54.242;10.280;2023-01-01T13:01:19;100848.00;;;11.80
25514;BMP180;48128;54.242;10.280;2023-01-01T13:03:58;100848.00;;;11.70
25514;BMP180;48128;54.242;10.280;2023-01-01T13:09:10;100835.00;;;11.70
25514;BMP180;48128;54.242;10.280;2023-01-01T13:11:39;100861.00;;;11.70
25514;BMP180;48128;54.242;10.280;2023-01-01T13:14:11;100854.00;;;11.80
25514;BMP180;48128;54.242;10.280;2023-01-01T13:16:39;100863.00;;;11.80
25514;BMP180;48128;54.242;10.280;2023-01-01T13:19:23;100873.00;;;11.80
25514;BMP180;48128;54.242;10.280;2023-01-01T13:21:50;100873.00;;;11.90
25514;BMP180;48128;54.242;10.280;2023-01-01T13:24:22;100878.00;;;11.90
25514;BMP180;48128;54.242;10.280;2023-01-01T13:26:49;100891.00;;;12.00
25514;BMP180;48128;54.242;10.280;2023-01-01T13:40:01;100894.00;;;11.90
25514;BMP180;48128;54.242;10.280;2023-01-01T14:07:50;100912.00;;;11.40
25514;BMP180;48128;54.242;10.280;2023-01-01T14:12:51;100920.00;;;11.30
25514;BMP180;48128;54.242;10.280;2023-01-01T14:15:30;100913.00;;;11.20
25514;BMP180;48128;54.242;10.280;2023-01-01T14:17:58;100923.00;;;11.10
25514;BMP180;48128;54.242;10.280;2023-01-01T14:20:44;100911.00;;;11.10
25514;BMP180;48128;54.242;10.280;2023-01-01T14:25:53;100901.00;;;10.90
25514;BMP180;48128;54.242;10.280;2023-01-01T14:28:31;100916.00;;;10.90
25514;BMP180;48128;54.242;10.280;2023-01-01T14:31:00;100916.00;;;10.80
25514;BMP180;48128;54.242;10.280;2023-01-01T14:33:36;100919.00;;;10.80
25514;BMP180;48128;54.242;10.280;2023-01-01T14:36:20;100914.00;;;10.80
25514;BMP180;48128;54.242;10.280;2023-01-01T14:38:49;100931.00;;;10.80
25514;BMP180;48128;54.242;10.280;2023-01-01T14:43:47;100933.00;;;10.80
25514;BMP180;48128;54.242;10.280;2023-01-01T14:46:17;100947.00;;;10.80
25514;BMP180;48128;54.242;10.280;2023-01-01T14:48:46;100936.00;;;10.80
25514;BMP180;48128;54.242;10.280;2023-01-01T14:51:21;100940.00;;;10.70
25514;BMP180;48128;54.242;10.280;2023-01-01T14:53:49;100950.00;;;10.80
25514;BMP180;48128;54.242;10.280;2023-01-01T14:56:31;100959.00;;;10.80
25514;BMP180;48128;54.242;10.280;2023-01-01T15:01:37;100962.00;;;10.80
25514;BMP180;48128;54.242;10.280;2023-01-01T15:04:20;100962.00;;;10.80
25514;BMP180;48128;54.242;10.280;2023-01-01T15:06:55;100955.00;;;10.70
25514;BMP180;48128;54.242;10.280;2023-01-01T15:09:23;100955.00;;;10.70
25514;BMP180;48128;54.242;10.280;2023-01-01T15:11:51;100959.00;;;10.60
25514;BMP180;48128;54.242;10.280;2023-01-01T15:14:36;100962.00;;;10.60
25514;BMP180;48128;54.242;10.280;2023-01-01T15:17:08;100981.00;;;10.50
25514;BMP180;48128;54.242;10.280;2023-01-01T15:19:38;100978.00;;;10.50
25514;BMP180;48128;54.242;10.280;2023-01-01T15:22:10;100986.00;;;10.40
25514;BMP180;48128;54.242;10.280;2023-01-01T15:24:37;100995.00;;;10.40
25514;BMP180;48128;54.242;10.280;2023-01-01T15:27:05;100989.00;;;10.30
25514;BMP180;48128;54.242;10.280;2023-01-01T15:29:44;100998.00;;;10.30
25514;BMP180;48128;54.242;10.280;2023-01-01T15:32:13;101012.00;;;10.30
25514;BMP180;48128;54.242;10.280;2023-01-01T15:39:58;101006.00;;;10.30
25514;BMP180;48128;54.242;10.280;2023-01-01T15:42:32;100998.00;;;10.20
25514;BMP180;48128;54.242;10.280;2023-01-01T15:47:41;100996.00;;;10.10
25514;BMP180;48128;54.242;10.280;2023-01-01T15:50:22;100990.00;;;10.10
25514;BMP180;48128;54.242;10.280;2023-01-01T15:53:02;100991.00;;;10.00
25514;BMP180;48128;54.242;10.280;2023-01-01T15:55:34;100986.00;;;10.00
25514;BMP180;48128;54.242;10.280;2023-01-01T15:58:02;100982.00;;;9.90
25514;BMP180;48128;54.242;10.280;2023-01-01T16:00:30;100972.00;;;9.90
25514;BMP180;48128;54.242;10.280;2023-01-01T16:03:00;100978.00;;;9.80
25514;BMP180;48128;54.242;10.280;2023-01-01T16:05:29;100970.00;;;9.80
25514;BMP180;48128;54.242;10.280;2023-01-01T16:08:00;100967.00;;;9.80
25514;BMP180;48128;54.242;10.280;2023-01-01T16:10:28;100966.00;;;9.80
25514;BMP180;48128;54.242;10.280;2023-01-01T16:12:55;100975.00;;;9.80
25514;BMP180;48128;54.242;10.280;2023-01-01T16:15:21;100971.00;;;9.80
25514;BMP180;48128;54.242;10.280;2023-01-01T16:17:49;100979.00;;;9.80
25514;BMP180;48128;54.242;10.280;2023-01-01T16:20:17;100975.00;;;9.80
25514;BMP180;48128;54.242;10.280;2023-01-01T16:22:44;100979.00;;;9.80
25514;BMP180;48128;54.242;10.280;2023-01-01T16:27:40;100985.00;;;9.80
25514;BMP180;48128;54.242;10.280;2023-01-01T16:30:08;100995.00;;;9.80
25514;BMP180;48128;54.242;10.280;2023-01-01T16:32:38;100982.00;;;9.80
25514;BMP180;48128;54.242;10.280;2023-01-01T16:35:09;100990.00;;;9.80
25514;BMP180;48128;54.242;10.280;2023-01-01T16:37:37;100995.00;;;9.80
25514;BMP180;48128;54.242;10.280;2023-01-01T16:40:05;100991.00;;;9.80
25514;BMP180;48128;54.242;10.280;2023-01-01T16:42:33;100996.00;;;9.70
25514;BMP180;48128;54.242;10.280;2023-01-01T16:44:59;100993.00;;;9.70